• Join FlightAware (Why Join?)
  • Login
  • US Flag 
08:26AM EDT


 

Airport Tracker/Info


-or-


 

Live Flight TrackerFlight Track Log ✈ N10NM ✈ 22-Feb-2014 ✈ KPNM - KBRD

Flight Track Log - Related Links

Times and Time Zones

All times are in EST time to prevent confusion due to time zone crossing. See the N10NM flight status page for this flight to view local times or setup timezone preferences in your user account.

Time Position Orientation Groundspeed Altitude Reporting Facility
EST Latitude Longitude Course Direction KTS MPH feet Rate Location/Type
10:15AM 45.6369 -93.6617 335° Northwest 81 93 4,100  Level Minneapolis Center
10:16AM 45.6686 -93.6806 337° Northwest 104 120 4,000 -60 Descending Minneapolis Center
10:17AM 45.6967 -93.6989 335° Northwest 109 125 4,000  Level Minneapolis Center
10:19AM 45.7239 -93.7136 339° North 107 123 4,000  Level Minneapolis Center
10:20AM 45.6930 -93.6853 335° Northwest  Level FlightAware Approximate
10:20AM 45.7492 -93.7358 328° Northwest 107 123 4,100  Level Minneapolis Center
10:21AM 45.7163 -93.7012 335° Northwest  Level FlightAware Approximate
10:21AM 45.7756 -93.7539 334° Northwest 107 123 4,100  Level Minneapolis Center
10:22AM 45.8006 -93.7775 327° Northwest 107 123 4,100  Level Minneapolis Center
10:23AM 45.8275 -93.7944 336° Northwest 107 123 4,100  Level Minneapolis Center
10:24AM 45.8544 -93.8106 337° Northwest 107 123 4,100  Level Minneapolis Center
10:25AM 45.8847 -93.8333 332° Northwest 107 123 4,100  Level Minneapolis Center
10:26AM 45.9097 -93.8542 330° Northwest 107 123 4,100  Level Minneapolis Center
10:27AM 45.9353 -93.8742 331° Northwest 107 123 4,100  Level Minneapolis Center
10:28AM 45.9617 -93.8931 334° Northwest 106 122 4,100  Level Minneapolis Center
10:29AM 45.9869 -93.9114 333° Northwest 106 122 4,100  Level Minneapolis Center
10:30AM 46.0114 -93.9275 335° Northwest 106 122 4,100  Level Minneapolis Center
10:32AM 46.0609 -93.9559 338° Northwest  Level FlightAware Approximate
10:39AM 46.2645 -94.0656 341° North  Level FlightAware Approximate
10:40AM 46.2938 -94.0802 341° North  Level FlightAware Approximate
10:41AM 46.3232 -94.0949 341° North  Level FlightAware Approximate
10:42AM 46.3525 -94.1096 341° North  Level FlightAware Approximate
10:43AM 46.3818 -94.1243 341° North  Level FlightAware Approximate
10:44AM 46.4000 -94.1333 341° North  Level FlightAware Approximate
10:45AM 46.4042 -94.1338 341° North  Level Estimated
10:46AM 46.4000 -94.1333 341° North  Level FlightAware Approximate
10:47AM 46.4042 -94.1338 341° North  Level Estimated
10:48AM 46.4000 -94.1333 341° North  Level FlightAware Approximate
10:49AM 46.4042 -94.1338 341° North  Level Estimated
10:50AM 46.4000 -94.1333 341° North  Level FlightAware Approximate
10:51AM 46.4042 -94.1338 341° North  Level Estimated
10:52AM 46.4000 -94.1333 341° North  Level FlightAware Approximate
10:53AM 46.4042 -94.1338 341° North  Level Estimated